createdAt,value
2017-07-14T00:00:49.058Z,4.60
2017-07-14T00:02:52.958Z,5.13
2017-07-14T00:04:56.557Z,4.60
2017-07-14T00:07:00.334Z,5.77
2017-07-14T00:09:04.262Z,5.33
2017-07-14T00:11:08.248Z,4.90
2017-07-14T00:13:12.582Z,5.33
2017-07-14T00:15:16.255Z,5.93
2017-07-14T00:17:20.175Z,5.30
2017-07-14T00:19:24.401Z,4.97
2017-07-14T00:21:30.121Z,4.70
2017-07-14T00:23:34.556Z,5.27
2017-07-14T00:25:41.429Z,4.80
2017-07-14T00:27:45.104Z,4.17
2017-07-14T00:29:49.074Z,4.93
2017-07-14T00:31:53.550Z,4.40
2017-07-14T00:33:57.351Z,4.67
2017-07-14T00:36:02.693Z,4.67
2017-07-14T00:38:06.185Z,4.70
2017-07-14T00:40:10.085Z,4.03
2017-07-14T00:42:14.399Z,4.90
2017-07-14T00:44:18.406Z,4.90
2017-07-14T00:46:22.005Z,4.40
2017-07-14T00:48:25.294Z,5.20
2017-07-14T00:50:29.609Z,4.70
2017-07-14T00:52:33.305Z,4.20
2017-07-14T00:54:38.334Z,4.87
2017-07-14T00:56:42.135Z,3.87
2017-07-14T00:58:45.837Z,4.80
2017-07-14T01:00:49.649Z,3.83
2017-07-14T01:02:52.927Z,4.80
2017-07-14T01:04:57.140Z,4.10
2017-07-14T01:07:00.941Z,4.30
2017-07-14T01:09:04.947Z,4.90
2017-07-14T01:11:08.642Z,4.10
2017-07-14T01:13:12.523Z,4.23
2017-07-14T01:15:16.475Z,4.47
2017-07-14T01:17:20.450Z,3.90
2017-07-14T01:19:24.672Z,4.30
2017-07-14T01:21:28.679Z,4.00
2017-07-14T01:23:32.369Z,4.70
2017-07-14T01:25:36.195Z,3.90
2017-07-14T01:27:40.364Z,4.40
2017-07-14T01:29:43.776Z,4.13
2017-07-14T01:31:47.479Z,4.53
2017-07-14T01:33:51.480Z,4.40
2017-07-14T01:35:55.182Z,4.50
2017-07-14T01:37:59.500Z,4.00
2017-07-14T01:40:03.602Z,4.60
2017-07-14T01:42:08.120Z,4.43
2017-07-14T01:44:12.119Z,4.27
2017-07-14T01:46:16.339Z,4.13
2017-07-14T01:48:20.118Z,4.67
2017-07-14T01:50:23.741Z,3.90
2017-07-14T01:52:27.535Z,4.57
2017-07-14T01:54:32.158Z,4.43
2017-07-14T01:56:35.653Z,4.53
2017-07-14T01:58:39.349Z,4.20
2017-07-14T02:00:43.457Z,5.00
2017-07-14T02:02:47.464Z,4.60
2017-07-14T02:24:27.130Z,4.13
2017-07-14T02:26:31.025Z,4.00
2017-07-14T02:28:35.033Z,4.27
2017-07-14T02:30:39.037Z,4.60
2017-07-14T02:32:42.636Z,4.30
2017-07-14T02:34:48.591Z,4.30
2017-07-14T02:36:52.637Z,4.40
2017-07-14T02:38:56.908Z,4.90
2017-07-14T02:41:01.014Z,4.30
2017-07-14T02:43:04.817Z,4.67
2017-07-14T02:45:08.936Z,4.90
2017-07-14T02:47:12.726Z,4.43
2017-07-14T02:49:16.737Z,5.33
2017-07-14T02:51:21.350Z,5.47
2017-07-14T02:53:25.562Z,5.47
2017-07-14T02:55:29.780Z,4.70
2017-07-14T02:57:33.889Z,4.37
2017-07-14T02:59:38.207Z,4.87
2017-07-14T03:01:42.099Z,5.10
2017-07-14T03:03:46.002Z,5.23
2017-07-14T03:05:49.704Z,4.03
2017-07-14T03:07:54.105Z,5.37
2017-07-14T03:09:57.923Z,4.50
2017-07-14T03:12:02.093Z,4.57
2017-07-14T03:14:06.341Z,4.63
2017-07-14T03:16:10.960Z,4.53
2017-07-14T03:18:14.970Z,4.97
2017-07-14T03:20:18.962Z,4.57
2017-07-14T03:22:23.287Z,5.17
2017-07-14T03:24:26.968Z,4.80
2017-07-14T03:26:30.887Z,4.27
2017-07-14T03:28:35.726Z,4.47
2017-07-14T03:30:38.904Z,4.93
2017-07-14T03:32:43.115Z,4.93
2017-07-14T03:34:47.119Z,5.27
2017-07-14T03:36:50.794Z,4.80
2017-07-14T03:38:54.823Z,4.67
2017-07-14T03:40:58.700Z,4.50
2017-07-14T03:43:06.719Z,5.47
2017-07-14T03:45:11.248Z,5.03
2017-07-14T03:47:14.536Z,5.20
2017-07-14T03:49:18.440Z,4.90
2017-07-14T03:51:22.599Z,4.40
2017-07-14T03:53:26.862Z,4.73
2017-07-14T03:55:30.866Z,5.20
2017-07-14T03:57:35.077Z,5.70
2017-07-14T03:59:38.988Z,5.07
2017-07-14T04:01:42.885Z,5.03
2017-07-14T04:03:46.584Z,4.40
2017-07-14T04:05:49.981Z,5.03
2017-07-14T04:07:55.005Z,5.23
2017-07-14T04:09:59.114Z,4.47
2017-07-14T04:12:03.021Z,5.07
2017-07-14T04:14:06.718Z,5.27
2017-07-14T04:16:10.828Z,5.90
2017-07-14T04:18:17.706Z,5.20
2017-07-14T04:20:21.811Z,5.33
2017-07-14T04:22:26.121Z,5.43
2017-07-14T04:24:30.209Z,5.93
2017-07-14T04:26:34.336Z,6.03
2017-07-14T04:28:38.129Z,5.73
2017-07-14T04:30:42.352Z,5.17
2017-07-14T04:32:45.844Z,5.50
2017-07-14T04:34:49.672Z,5.17
2017-07-14T04:36:54.572Z,5.00
2017-07-14T04:38:58.885Z,5.10
2017-07-14T04:41:02.790Z,5.70
2017-07-14T04:43:06.090Z,4.87
2017-07-14T04:45:10.708Z,5.50
2017-07-14T04:47:14.913Z,5.07
2017-07-14T04:49:18.413Z,6.37
2017-07-14T04:51:23.231Z,4.77
2017-07-14T04:53:27.134Z,5.13
2017-07-14T04:55:31.754Z,5.20
2017-07-14T04:57:36.272Z,5.10
2017-07-14T04:59:40.421Z,5.77
2017-07-14T05:01:45.106Z,5.60
2017-07-14T05:03:48.802Z,5.87
2017-07-14T05:05:52.683Z,4.70
2017-07-14T05:07:56.611Z,5.60
2017-07-14T05:10:00.702Z,4.93
2017-07-14T05:12:04.826Z,5.47
2017-07-14T05:14:08.222Z,5.30
2017-07-14T05:16:12.228Z,6.13
2017-07-14T05:18:15.514Z,5.60
2017-07-14T05:20:19.933Z,5.70
2017-07-14T05:22:23.631Z,6.33
2017-07-14T05:24:28.557Z,6.80
2017-07-14T05:26:32.563Z,6.50
2017-07-14T05:28:36.453Z,5.40
2017-07-14T05:30:40.988Z,5.50
2017-07-14T05:32:45.378Z,5.20
2017-07-14T05:34:49.509Z,5.47
2017-07-14T05:36:53.116Z,5.17
2017-07-14T05:38:57.726Z,6.50
2017-07-14T05:41:02.039Z,5.73
2017-07-14T05:43:05.943Z,6.00
2017-07-14T05:45:12.108Z,6.40
2017-07-14T05:47:16.622Z,6.00
2017-07-14T05:49:21.655Z,5.70
2017-07-14T05:51:26.069Z,5.93
2017-07-14T05:53:31.507Z,6.10
2017-07-14T05:55:36.793Z,6.13
2017-07-14T05:57:41.369Z,6.00
2017-07-14T05:59:45.580Z,6.20
2017-07-14T06:01:49.678Z,5.40
2017-07-14T06:03:53.281Z,6.03
2017-07-14T06:05:59.001Z,5.57
2017-07-14T06:08:03.447Z,6.17
2017-07-14T06:10:07.864Z,5.47
2017-07-14T06:12:11.552Z,5.30
2017-07-14T06:14:14.849Z,5.33
2017-07-14T06:16:19.259Z,5.10
2017-07-14T06:18:23.366Z,6.37
2017-07-14T06:20:27.480Z,5.67
2017-07-14T06:22:31.383Z,5.37
2017-07-14T06:24:35.850Z,5.90
2017-07-14T06:26:40.523Z,5.10
2017-07-14T06:28:45.711Z,5.93
2017-07-14T06:30:50.176Z,5.00
2017-07-14T06:32:54.178Z,5.50
2017-07-14T06:34:58.593Z,5.83
2017-07-14T06:37:01.785Z,6.30
2017-07-14T06:39:06.098Z,5.87
2017-07-14T06:41:09.894Z,6.20
2017-07-14T06:43:13.494Z,6.20
2017-07-14T06:45:17.904Z,7.20
2017-07-14T06:47:22.626Z,6.57
2017-07-14T06:49:26.841Z,5.83
2017-07-14T06:51:30.848Z,6.57
2017-07-14T06:53:35.438Z,6.10
2017-07-14T06:55:39.785Z,6.40
2017-07-14T06:57:43.688Z,6.17
2017-07-14T06:59:47.589Z,6.97
2017-07-14T07:01:52.006Z,5.83
2017-07-14T07:03:55.803Z,6.43
2017-07-14T07:06:01.755Z,5.77
2017-07-14T07:08:05.558Z,5.30
2017-07-14T07:10:10.079Z,6.70
2017-07-14T07:12:14.158Z,5.93
2017-07-14T07:14:18.090Z,5.50
2017-07-14T07:16:22.093Z,5.00
2017-07-14T07:18:26.076Z,5.40
2017-07-14T07:20:32.362Z,6.60
2017-07-14T07:22:37.700Z,5.70
2017-07-14T07:24:41.293Z,5.87
2017-07-14T07:26:45.403Z,5.37
2017-07-14T07:28:49.060Z,4.83
2017-07-14T07:30:52.986Z,4.73
2017-07-14T07:32:57.219Z,5.00
2017-07-14T07:35:00.890Z,5.40
2017-07-14T07:37:05.449Z,4.60
2017-07-14T07:39:10.363Z,4.60
2017-07-14T07:41:15.091Z,5.10
2017-07-14T07:43:19.509Z,5.10
2017-07-14T07:45:22.890Z,4.70
2017-07-14T07:47:31.913Z,5.30
2017-07-14T07:49:35.306Z,5.10
2017-07-14T07:51:39.714Z,5.07
2017-07-14T07:53:43.933Z,4.67
2017-07-14T07:55:48.040Z,4.43
2017-07-14T07:57:51.851Z,4.83
2017-07-14T07:59:56.567Z,4.10
2017-07-14T08:02:00.557Z,5.13
2017-07-14T08:04:09.397Z,4.80
2017-07-14T08:06:12.987Z,5.00
2017-07-14T08:08:16.893Z,4.87
2017-07-14T08:10:20.899Z,4.30
2017-07-14T08:12:24.697Z,4.30
2017-07-14T08:14:28.807Z,4.60
2017-07-14T08:16:32.506Z,4.87
2017-07-14T08:18:36.613Z,3.67
2017-07-14T08:20:40.327Z,4.07
2017-07-14T08:22:43.909Z,3.70
2017-07-14T08:24:47.816Z,4.50
2017-07-14T08:26:51.822Z,4.40
2017-07-14T08:28:55.831Z,4.10
2017-07-14T08:30:59.427Z,4.57
2017-07-14T08:33:03.941Z,4.60
2017-07-14T08:35:07.748Z,3.87
2017-07-14T08:37:12.124Z,3.90
2017-07-14T08:39:16.145Z,4.10
2017-07-14T08:41:20.075Z,3.90
2017-07-14T08:43:23.266Z,4.33
2017-07-14T08:45:27.570Z,4.07
2017-07-14T08:47:31.578Z,3.83
2017-07-14T08:49:36.093Z,3.27
2017-07-14T08:51:41.001Z,3.73
2017-07-14T08:53:45.029Z,4.60
2017-07-14T08:55:49.344Z,4.07
2017-07-14T08:57:54.377Z,3.60
2017-07-14T08:59:58.073Z,3.17
2017-07-14T09:02:02.181Z,3.63
2017-07-14T09:04:06.598Z,3.70
2017-07-14T09:06:11.220Z,3.33
2017-07-14T09:08:15.532Z,3.47
2017-07-14T09:10:22.613Z,4.30
2017-07-14T09:12:27.715Z,3.80
2017-07-14T09:14:32.756Z,3.80
2017-07-14T09:16:39.746Z,3.80
2017-07-14T09:18:44.163Z,3.80
2017-07-14T09:20:47.740Z,4.53
2017-07-14T09:22:52.029Z,3.80
2017-07-14T09:24:56.943Z,4.03
2017-07-14T09:27:01.522Z,3.67
2017-07-14T09:29:05.218Z,4.00
2017-07-14T09:31:09.428Z,3.80
2017-07-14T09:33:13.947Z,4.03
2017-07-14T09:35:17.647Z,3.80
2017-07-14T09:37:21.962Z,4.00
2017-07-14T09:39:27.805Z,3.90
2017-07-14T09:41:33.191Z,4.30
2017-07-14T09:43:37.367Z,4.40
2017-07-14T09:45:40.846Z,3.70
2017-07-14T09:47:44.273Z,3.23
2017-07-14T09:49:47.836Z,3.60
2017-07-14T09:51:51.226Z,4.23
2017-07-14T09:53:54.722Z,3.83
2017-07-14T09:55:58.425Z,3.27
2017-07-14T09:58:02.529Z,3.40
2017-07-14T10:00:06.228Z,3.90
2017-07-14T10:02:10.029Z,4.17
2017-07-14T10:04:13.629Z,4.30
2017-07-14T10:06:17.430Z,3.80
2017-07-14T10:08:20.970Z,3.30
2017-07-14T10:10:25.030Z,3.53
2017-07-14T10:12:28.632Z,4.13
2017-07-14T10:14:32.532Z,3.77
2017-07-14T10:16:36.537Z,3.63
2017-07-14T10:18:40.135Z,4.33
2017-07-14T10:20:43.833Z,3.50
2017-07-14T10:22:47.429Z,4.00
2017-07-14T10:24:50.840Z,3.10
2017-07-14T10:26:54.320Z,4.20
2017-07-14T10:28:58.430Z,3.40
2017-07-14T10:31:01.920Z,3.63
2017-07-14T10:33:05.617Z,3.10
2017-07-14T10:35:10.237Z,3.50
2017-07-14T10:37:14.349Z,3.00
2017-07-14T10:39:18.164Z,3.57
2017-07-14T10:41:22.050Z,3.10
2017-07-14T10:43:25.755Z,3.03
2017-07-14T10:45:29.859Z,3.40
2017-07-14T10:47:33.868Z,3.40
2017-07-14T10:49:37.532Z,2.80
2017-07-14T10:51:41.058Z,3.83
2017-07-14T10:53:44.657Z,3.00
2017-07-14T10:55:49.582Z,3.50
2017-07-14T10:57:53.464Z,2.50
2017-07-14T10:59:57.291Z,3.07
2017-07-14T11:02:01.333Z,3.27
2017-07-14T11:04:05.300Z,3.13
2017-07-14T11:06:09.826Z,3.07
2017-07-14T11:08:13.619Z,3.60
2017-07-14T11:10:17.830Z,3.07
2017-07-14T11:12:21.840Z,3.23
2017-07-14T11:14:25.846Z,3.13
2017-07-14T11:16:29.542Z,4.00
2017-07-14T11:18:34.268Z,2.87
2017-07-14T11:20:37.865Z,3.13
2017-07-14T11:22:42.686Z,3.10
2017-07-14T11:24:47.829Z,3.10
2017-07-14T11:26:52.648Z,3.20
2017-07-14T11:28:56.651Z,3.40
2017-07-14T11:31:00.766Z,3.00
2017-07-14T11:33:06.655Z,3.40
2017-07-14T11:35:11.537Z,2.80
2017-07-14T11:37:16.570Z,2.90
2017-07-14T11:39:20.784Z,3.07
2017-07-14T11:41:25.911Z,3.00
2017-07-14T11:43:30.130Z,3.00
2017-07-14T11:45:33.929Z,3.10
2017-07-14T11:47:38.442Z,2.93
2017-07-14T11:49:42.839Z,3.40
2017-07-14T11:51:46.663Z,3.00
2017-07-14T11:53:51.404Z,3.20
2017-07-14T11:55:55.183Z,3.37
2017-07-14T11:57:58.758Z,3.37
2017-07-14T12:00:03.092Z,2.83
2017-07-14T12:02:07.658Z,3.27
2017-07-14T12:04:11.208Z,2.80
2017-07-14T12:06:14.677Z,2.50
2017-07-14T12:08:18.958Z,3.53
2017-07-14T12:10:23.226Z,3.00
2017-07-14T12:12:27.439Z,3.30
2017-07-14T12:14:32.058Z,2.70
2017-07-14T12:16:36.273Z,3.33
2017-07-14T12:18:40.893Z,3.10
2017-07-14T12:20:46.853Z,2.90
2017-07-14T12:22:51.052Z,2.90
2017-07-14T12:24:54.962Z,2.70
2017-07-14T12:26:59.067Z,2.80
2017-07-14T12:29:03.354Z,2.70
2017-07-14T12:31:07.285Z,3.77
2017-07-14T12:33:10.341Z,2.60
2017-07-14T12:35:14.374Z,3.23
2017-07-14T12:37:18.378Z,3.60
2017-07-14T12:39:22.257Z,3.60
2017-07-14T12:41:26.903Z,3.47
2017-07-14T12:43:30.604Z,3.60
2017-07-14T12:45:34.406Z,3.13
2017-07-14T12:47:38.115Z,3.00
2017-07-14T12:49:42.127Z,3.23
2017-07-14T12:51:46.091Z,5.10
2017-07-14T12:53:50.043Z,3.80
2017-07-14T12:55:53.928Z,3.00
2017-07-14T12:57:57.626Z,3.20
2017-07-14T13:00:01.631Z,3.10
2017-07-14T13:02:05.946Z,3.83
2017-07-14T13:04:09.133Z,3.50
2017-07-14T13:06:13.244Z,3.40
2017-07-14T13:08:17.660Z,3.37
2017-07-14T13:10:20.942Z,4.67
2017-07-14T13:12:25.153Z,3.90
2017-07-14T13:14:28.856Z,4.73
2017-07-14T13:16:32.840Z,3.73
2017-07-14T13:18:36.250Z,3.80
2017-07-14T13:20:40.972Z,3.93
2017-07-14T13:22:44.818Z,3.80
2017-07-14T13:24:48.576Z,4.60
2017-07-14T13:26:53.196Z,5.40
2017-07-14T13:28:57.100Z,4.50
2017-07-14T13:31:00.801Z,5.23
2017-07-14T13:33:05.120Z,5.10
2017-07-14T13:35:09.119Z,4.80
2017-07-14T13:37:12.714Z,5.03
2017-07-14T13:39:17.030Z,4.30
2017-07-14T13:41:20.940Z,4.80
2017-07-14T13:43:25.146Z,5.00
2017-07-14T13:45:29.989Z,5.17
2017-07-14T13:47:33.394Z,4.77
2017-07-14T13:49:37.572Z,5.30
2017-07-14T13:51:42.601Z,4.87
2017-07-14T13:53:46.716Z,4.77
2017-07-14T13:55:50.718Z,4.50
2017-07-14T13:57:54.725Z,4.70
2017-07-14T13:59:58.298Z,4.93
2017-07-14T14:02:01.814Z,5.17
2017-07-14T14:04:05.416Z,4.93
2017-07-14T14:06:09.416Z,4.63
2017-07-14T14:08:13.195Z,4.70
2017-07-14T14:10:17.127Z,5.87
2017-07-14T14:12:21.953Z,5.63
2017-07-14T14:14:25.853Z,4.83
2017-07-14T14:16:29.448Z,4.30
2017-07-14T14:18:33.025Z,4.57
2017-07-14T14:20:38.483Z,4.83
2017-07-14T14:22:42.184Z,4.40
2017-07-14T14:24:45.372Z,4.63
2017-07-14T14:26:49.272Z,4.57
2017-07-14T14:28:52.947Z,4.70
2017-07-14T14:30:57.291Z,4.40
2017-07-14T14:33:00.871Z,4.43
2017-07-14T14:35:05.504Z,3.93
2017-07-14T14:37:09.614Z,4.50
2017-07-14T14:39:13.003Z,4.33
2017-07-14T14:41:16.780Z,3.93
2017-07-14T14:43:20.505Z,4.37
2017-07-14T14:45:25.021Z,4.77
2017-07-14T14:47:29.233Z,4.23
2017-07-14T14:49:32.711Z,4.30
2017-07-14T14:51:36.937Z,3.90
2017-07-14T14:53:40.430Z,4.93
2017-07-14T14:55:43.825Z,4.03
2017-07-14T14:57:48.037Z,3.53
2017-07-14T14:59:53.373Z,3.80
2017-07-14T15:01:56.866Z,3.47
2017-07-14T15:04:00.667Z,4.60
2017-07-14T15:06:04.878Z,3.87
2017-07-14T15:08:08.781Z,4.30
2017-07-14T15:10:12.791Z,2.87
2017-07-14T15:12:16.694Z,3.70
2017-07-14T15:14:20.594Z,3.47
2017-07-14T15:16:24.499Z,3.33
2017-07-14T15:18:28.916Z,4.00
2017-07-14T15:20:33.538Z,3.90
2017-07-14T15:22:37.258Z,3.20
2017-07-14T15:24:40.938Z,3.33
2017-07-14T15:26:44.534Z,4.07
2017-07-14T15:28:48.206Z,3.70
2017-07-14T15:30:52.751Z,3.60
2017-07-14T15:32:56.548Z,3.90
2017-07-14T15:35:01.071Z,3.20
2017-07-14T15:37:05.168Z,3.80
2017-07-14T15:39:11.643Z,3.80
2017-07-14T15:41:15.551Z,4.00
2017-07-14T15:43:21.708Z,3.70
2017-07-14T15:45:26.942Z,4.20
2017-07-14T15:47:30.543Z,4.00
2017-07-14T15:49:34.563Z,3.53
2017-07-14T15:51:38.854Z,4.20
2017-07-14T15:53:43.372Z,4.30
2017-07-14T15:55:46.860Z,4.33
2017-07-14T15:57:50.258Z,2.80
2017-07-14T15:59:53.750Z,3.53
2017-07-14T16:01:57.348Z,3.10
2017-07-14T16:04:00.945Z,2.73
2017-07-14T16:06:05.467Z,2.87
2017-07-14T16:08:08.956Z,3.23
2017-07-14T16:10:13.985Z,2.97
2017-07-14T16:12:18.302Z,2.97
2017-07-14T16:14:23.947Z,2.90
2017-07-14T16:16:27.641Z,2.90
2017-07-14T16:18:32.162Z,3.20
2017-07-14T16:20:35.771Z,2.60
2017-07-14T16:22:39.866Z,2.50
2017-07-14T16:24:49.719Z,2.73
2017-07-14T16:26:53.489Z,2.80
2017-07-14T16:28:57.473Z,3.43
2017-07-14T16:31:01.934Z,3.30
2017-07-14T16:33:05.841Z,2.70
2017-07-14T16:35:09.841Z,3.13
2017-07-14T16:37:13.850Z,2.50
2017-07-14T16:39:17.765Z,2.83
2017-07-14T16:41:21.861Z,2.90
2017-07-14T16:43:25.313Z,2.80
2017-07-14T16:45:29.777Z,2.10
2017-07-14T16:47:33.365Z,3.07
2017-07-14T16:49:37.172Z,2.50
2017-07-14T16:51:40.764Z,2.70
2017-07-14T16:53:44.674Z,2.73
2017-07-14T16:55:49.174Z,2.70
2017-07-14T16:57:53.401Z,2.90
2017-07-14T16:59:57.197Z,2.80
2017-07-14T17:02:01.079Z,2.57
2017-07-14T17:04:06.443Z,3.00
2017-07-14T17:06:11.041Z,3.20
2017-07-14T17:08:15.065Z,3.03
2017-07-14T17:10:19.393Z,2.40
2017-07-14T17:12:23.593Z,3.00
2017-07-14T17:14:27.943Z,2.93
2017-07-14T17:16:32.423Z,2.40
2017-07-14T17:18:37.862Z,2.30
2017-07-14T17:20:41.890Z,3.30
2017-07-14T17:22:45.772Z,2.70
2017-07-14T17:24:50.188Z,2.97
2017-07-14T17:26:53.891Z,2.50
2017-07-14T17:28:58.307Z,2.93
2017-07-14T17:31:01.781Z,3.03
2017-07-14T17:33:06.114Z,2.70
2017-07-14T17:35:10.326Z,2.67
2017-07-14T17:37:14.130Z,2.93
2017-07-14T17:39:17.720Z,2.87
2017-07-14T17:41:21.591Z,2.60
2017-07-14T17:43:26.242Z,2.50
2017-07-14T17:45:32.197Z,2.37
2017-07-14T17:47:36.719Z,3.43
2017-07-14T17:49:41.337Z,3.17
2017-07-14T17:51:44.928Z,3.93
2017-07-14T17:53:48.323Z,4.10
2017-07-14T17:55:51.815Z,3.37
2017-07-14T17:57:56.031Z,4.40
2017-07-14T18:00:00.423Z,4.70
2017-07-14T18:02:04.247Z,4.00
2017-07-14T18:04:07.842Z,4.33
2017-07-14T18:06:12.566Z,2.70
2017-07-14T18:08:16.677Z,3.00
2017-07-14T18:10:21.702Z,3.13
2017-07-14T18:12:26.220Z,3.97
2017-07-14T18:14:30.741Z,3.53
2017-07-14T18:16:35.050Z,3.20
2017-07-14T18:18:38.858Z,3.80
2017-07-14T18:20:46.238Z,5.03
2017-07-14T18:22:50.276Z,3.87
2017-07-14T18:24:55.480Z,3.30
2017-07-14T18:27:01.031Z,3.43
2017-07-14T18:29:05.132Z,2.97
2017-07-14T18:31:09.014Z,2.83
2017-07-14T18:33:13.020Z,3.70
2017-07-14T18:35:17.563Z,2.60
2017-07-14T18:37:22.281Z,3.13
2017-07-14T18:39:26.497Z,3.20
2017-07-14T18:41:30.869Z,2.47
2017-07-14T18:43:35.868Z,2.70
2017-07-14T18:45:39.836Z,2.17
2017-07-14T18:47:44.570Z,3.23
2017-07-14T18:49:47.838Z,2.50
2017-07-14T18:51:52.067Z,2.70
2017-07-14T18:53:56.486Z,2.50
2017-07-14T18:56:00.689Z,3.00
2017-07-14T18:58:06.035Z,2.90
2017-07-14T19:00:10.643Z,3.27
2017-07-14T19:02:14.963Z,3.73
2017-07-14T19:04:18.872Z,3.30
2017-07-14T19:06:22.907Z,3.57
2017-07-14T19:08:27.903Z,2.70
2017-07-14T19:10:31.595Z,3.10
2017-07-14T19:12:35.915Z,2.97
2017-07-14T19:14:39.501Z,2.83
2017-07-14T19:16:43.459Z,2.33
2017-07-14T19:18:47.230Z,2.30
2017-07-14T19:20:51.639Z,2.70
2017-07-14T19:22:55.425Z,2.40
2017-07-14T19:24:59.670Z,2.63
2017-07-14T19:27:04.882Z,2.50
2017-07-14T19:29:08.367Z,2.63
2017-07-14T19:31:12.796Z,2.70
2017-07-14T19:33:16.898Z,2.60
2017-07-14T19:35:20.801Z,2.30
2017-07-14T19:37:25.121Z,2.27
2017-07-14T19:39:29.941Z,2.80
2017-07-14T19:41:34.358Z,2.30
2017-07-14T19:43:38.672Z,2.30
2017-07-14T19:45:42.577Z,2.60
2017-07-14T19:47:46.583Z,2.90
2017-07-14T19:49:50.185Z,2.33
2017-07-14T19:51:54.490Z,2.13
2017-07-14T19:53:58.807Z,2.53
2017-07-14T19:56:03.005Z,2.10
2017-07-14T19:58:07.137Z,1.97
2017-07-14T20:00:13.692Z,2.17
2017-07-14T20:02:17.902Z,2.37
2017-07-14T20:04:22.422Z,1.93
2017-07-14T20:06:27.251Z,1.90
2017-07-14T20:08:31.466Z,1.87
2017-07-14T20:10:35.563Z,2.27
2017-07-14T20:12:39.265Z,1.80
2017-07-14T20:14:43.897Z,2.03
2017-07-14T20:16:48.303Z,3.00
2017-07-14T20:18:51.712Z,2.30
2017-07-14T20:20:55.911Z,1.73
2017-07-14T20:23:00.646Z,3.07
2017-07-14T20:25:04.617Z,1.60
2017-07-14T20:27:08.949Z,1.70
2017-07-14T20:29:12.617Z,1.93
2017-07-14T20:31:16.957Z,1.87
2017-07-14T20:33:20.964Z,1.40
2017-07-14T20:35:24.461Z,1.63
2017-07-14T20:37:27.552Z,1.90
2017-07-14T20:39:31.961Z,2.10
2017-07-14T20:41:36.455Z,2.20
2017-07-14T20:43:41.304Z,1.67
2017-07-14T20:45:44.899Z,1.60
2017-07-14T20:47:48.700Z,1.60
2017-07-14T20:49:52.614Z,1.87
2017-07-14T20:51:56.415Z,1.93
2017-07-14T20:54:00.739Z,1.57
2017-07-14T20:56:04.932Z,1.97
2017-07-14T20:58:09.865Z,1.80
2017-07-14T21:00:14.068Z,1.70
2017-07-14T21:02:18.587Z,1.60
2017-07-14T21:04:22.593Z,1.57
2017-07-14T21:06:26.184Z,1.87
2017-07-14T21:08:30.505Z,1.90
2017-07-14T21:10:34.203Z,2.17
2017-07-14T21:12:38.310Z,1.60
2017-07-14T21:14:42.834Z,1.60
2017-07-14T21:16:46.527Z,1.90
2017-07-14T21:18:50.433Z,1.67
2017-07-14T21:20:54.032Z,2.03
2017-07-14T21:22:59.467Z,1.43
2017-07-14T21:25:03.268Z,2.00
2017-07-14T21:27:07.074Z,1.53
2017-07-14T21:29:10.981Z,1.53
2017-07-14T21:31:15.389Z,1.70
2017-07-14T21:33:19.601Z,2.60
2017-07-14T21:35:23.810Z,1.30
2017-07-14T21:37:27.806Z,1.57
2017-07-14T21:39:32.236Z,1.50
2017-07-14T21:41:36.140Z,1.50
2017-07-14T21:43:39.842Z,1.80
2017-07-14T21:45:44.152Z,1.50
2017-07-14T21:47:49.185Z,1.53
2017-07-14T21:49:54.524Z,2.13
2017-07-14T21:51:59.559Z,1.90
2017-07-14T21:54:03.968Z,1.47
2017-07-14T21:56:08.522Z,1.40
2017-07-14T21:58:13.002Z,1.50
2017-07-14T22:00:17.724Z,1.20
2017-07-14T22:02:22.359Z,1.80
2017-07-14T22:04:26.410Z,1.50
2017-07-14T22:06:30.443Z,1.30
2017-07-14T22:08:35.129Z,2.10
2017-07-14T22:10:38.513Z,1.40
2017-07-14T22:12:42.887Z,1.60
2017-07-14T22:14:46.793Z,1.60
2017-07-14T22:16:50.593Z,1.50
2017-07-14T22:18:55.110Z,1.30
2017-07-14T22:20:58.607Z,1.50
2017-07-14T22:23:02.718Z,1.60
2017-07-14T22:25:06.617Z,1.33
2017-07-14T22:27:11.441Z,1.70
2017-07-14T22:29:15.042Z,2.07
2017-07-14T22:31:18.634Z,1.43
2017-07-14T22:33:23.050Z,1.80
2017-07-14T22:35:26.443Z,1.70
2017-07-14T22:37:30.960Z,1.53
2017-07-14T22:39:34.966Z,1.40
2017-07-14T22:41:38.772Z,2.30
2017-07-14T22:43:42.983Z,1.67
2017-07-14T22:45:46.961Z,1.63
2017-07-14T22:47:51.093Z,1.80
2017-07-14T22:49:55.303Z,1.20
2017-07-14T22:51:59.310Z,1.40
2017-07-14T22:54:03.625Z,1.53
2017-07-14T22:56:07.781Z,1.63
2017-07-14T22:58:11.126Z,1.40
2017-07-14T23:00:14.868Z,1.43
2017-07-14T23:02:19.346Z,1.90
2017-07-14T23:04:23.680Z,1.60
2017-07-14T23:06:27.250Z,1.47
2017-07-14T23:08:30.745Z,1.57
2017-07-14T23:10:36.089Z,1.80
2017-07-14T23:12:39.781Z,1.93
2017-07-14T23:14:43.890Z,1.47
2017-07-14T23:16:47.895Z,1.77
2017-07-14T23:18:51.804Z,1.50
2017-07-14T23:20:56.419Z,1.83
2017-07-14T23:23:00.020Z,1.47
2017-07-14T23:25:04.427Z,1.27
2017-07-14T23:27:08.236Z,1.27
2017-07-14T23:29:11.932Z,1.87
2017-07-14T23:31:15.634Z,1.70
2017-07-14T23:33:19.330Z,1.23
2017-07-14T23:35:22.827Z,1.47
2017-07-14T23:37:26.523Z,1.87
2017-07-14T23:39:30.734Z,1.80
2017-07-14T23:41:34.638Z,1.30
2017-07-14T23:43:38.546Z,1.50
2017-07-14T23:45:42.346Z,1.80
2017-07-14T23:47:46.659Z,1.47
2017-07-14T23:49:51.693Z,2.00
2017-07-14T23:51:55.804Z,1.60
2017-07-14T23:53:59.316Z,1.40
2017-07-14T23:56:03.502Z,1.60
2017-07-14T23:58:07.081Z,1.70
